首页
METAR-TAF:

METAR-TAF

机场 :

Big Trout Lake, 安大略省, 加拿大

纬度: 53-50N, 经度: 089-52W, 海拔: 224米

当前天气观测

该预报发布于15分钟前的23:40 UTC
风速7节,风向东南
温度 -1°C
湿度 100%
气压 1004 hPa
能見度: 4.8公里
多云层高于1000英尺
阴天层高于1800英尺
小雪

METAR: CYTL 072340Z AUTO 13007KT 3SM -SN BKN010 OVC018 M01/M01 A2964 RMK SLP056

时间: 18:55 (23:55 UTC)

预报

该预报发布于2小时和44分钟前的21:11 UTC
预报有效从07日的 21点(UTC)到 08日的 08点(UTC)
风速10节,风向东转东南,有时为20节阵风
能見度: 3.2公里
多云层高于800英尺
阴天层高于2000英尺
小雪
短暂存在
从 07日的 21点(UTC)到 08日的 02点(UTC)
能見度: 9.7公里
散云层高于800英尺
阴天层高于2000英尺
小雪
从 08日的 0200点(UTC)
风速5节,风向东南
能見度: 1.6公里
阴天层高于400英尺
小雪, 轻雾
短暂存在
从 08日的 02点(UTC)到 08日的 08点(UTC)
能見度: 8.0公里
阴天层高于800英尺
小雪
几率 30%
从 08日的 02点(UTC)到 08日的 08点(UTC)
能見度: 3.2公里
(小) 冻, 毛毛雨, 小雪, 轻雾

TAF: CYTL 072111Z 0721/0808 12010G20KT 2SM -SN BKN008 OVC020 TEMPO 0721/0802 6SM -SN SCT008 OVC020 FM080200 13005KT 1SM -SN BR OVC004 TEMPO 0802/0808 5SM -SN OVC008 PROB30 0802/0808 2SM -FZDZ -SN BR RMK FCST BASED ON AUTO OBS. NXT FCST BY 080200Z

超过4000个机场的气象观测和天气预报(METAR&TAF报告)。

可查询的气象台以黄色和红色小点在地图上表示。

将鼠标移到小点上方,可查看气象台名称。

然后点击查看天气观测和预报。

如需切换地图:点击带黑十字的绿色按钮放大地图;点击带横线的绿色按钮缩小地图;或者点击绿色箭头查看邻近地区的地图。


METAR-TAF: